sensor_id;sensor_type;location;lat;lon;timestamp;P1;durP1;ratioP1;P2;durP2;ratioP2
42132;SDS011;70517;48.192;16.278;2023-10-08T00:00:14;1.92;;;1.20;;
42132;SDS011;70517;48.192;16.278;2023-10-08T00:03:33;1.23;;;1.08;;
42132;SDS011;70517;48.192;16.278;2023-10-08T00:06:34;1.53;;;1.10;;
42132;SDS011;70517;48.192;16.278;2023-10-08T00:09:34;1.40;;;1.10;;
42132;SDS011;70517;48.192;16.278;2023-10-08T00:12:38;2.67;;;1.30;;
42132;SDS011;70517;48.192;16.278;2023-10-08T00:18:45;2.05;;;1.00;;
42132;SDS011;70517;48.192;16.278;2023-10-08T00:21:49;2.15;;;1.17;;
42132;SDS011;70517;48.192;16.278;2023-10-08T00:24:49;2.47;;;1.10;;
42132;SDS011;70517;48.192;16.278;2023-10-08T00:27:55;2.33;;;1.20;;
42132;SDS011;70517;48.192;16.278;2023-10-08T00:33:55;1.03;;;0.70;;
42132;SDS011;70517;48.192;16.278;2023-10-08T00:36:56;1.73;;;1.10;;
42132;SDS011;70517;48.192;16.278;2023-10-08T00:39:58;1.27;;;0.90;;
42132;SDS011;70517;48.192;16.278;2023-10-08T00:42:58;1.98;;;1.27;;
42132;SDS011;70517;48.192;16.278;2023-10-08T00:45:58;3.40;;;1.10;;
42132;SDS011;70517;48.192;16.278;2023-10-08T00:48:59;3.75;;;1.30;;
42132;SDS011;70517;48.192;16.278;2023-10-08T00:52:18;1.90;;;1.23;;
42132;SDS011;70517;48.192;16.278;2023-10-08T00:55:26;1.63;;;1.20;;
42132;SDS011;70517;48.192;16.278;2023-10-08T00:58:30;1.90;;;1.30;;
42132;SDS011;70517;48.192;16.278;2023-10-08T01:01:34;1.20;;;0.90;;
42132;SDS011;70517;48.192;16.278;2023-10-08T01:04:35;1.60;;;1.10;;
42132;SDS011;70517;48.192;16.278;2023-10-08T01:07:37;1.52;;;1.30;;
42132;SDS011;70517;48.192;16.278;2023-10-08T01:10:40;2.60;;;1.27;;
42132;SDS011;70517;48.192;16.278;2023-10-08T01:13:43;1.50;;;1.13;;
42132;SDS011;70517;48.192;16.278;2023-10-08T01:16:46;3.60;;;1.52;;
42132;SDS011;70517;48.192;16.278;2023-10-08T01:19:46;1.00;;;0.80;;
42132;SDS011;70517;48.192;16.278;2023-10-08T01:22:54;2.50;;;1.00;;
42132;SDS011;70517;48.192;16.278;2023-10-08T01:25:57;2.55;;;1.35;;
42132;SDS011;70517;48.192;16.278;2023-10-08T01:29:13;1.95;;;0.98;;
42132;SDS011;70517;48.192;16.278;2023-10-08T01:32:19;1.95;;;1.20;;
42132;SDS011;70517;48.192;16.278;2023-10-08T01:35:20;1.77;;;1.02;;
42132;SDS011;70517;48.192;16.278;2023-10-08T01:38:23;2.67;;;1.10;;
42132;SDS011;70517;48.192;16.278;2023-10-08T01:41:24;1.73;;;1.20;;
42132;SDS011;70517;48.192;16.278;2023-10-08T01:44:30;1.42;;;1.10;;
42132;SDS011;70517;48.192;16.278;2023-10-08T01:47:31;2.75;;;1.45;;
42132;SDS011;70517;48.192;16.278;2023-10-08T01:50:31;1.48;;;0.90;;
42132;SDS011;70517;48.192;16.278;2023-10-08T01:53:35;2.15;;;1.27;;
42132;SDS011;70517;48.192;16.278;2023-10-08T01:56:37;2.13;;;1.10;;
42132;SDS011;70517;48.192;16.278;2023-10-08T01:59:37;2.20;;;1.13;;
42132;SDS011;70517;48.192;16.278;2023-10-08T02:02:38;1.77;;;1.25;;
42132;SDS011;70517;48.192;16.278;2023-10-08T02:05:41;3.30;;;1.30;;
42132;SDS011;70517;48.192;16.278;2023-10-08T02:08:42;1.42;;;1.00;;
42132;SDS011;70517;48.192;16.278;2023-10-08T02:11:46;1.67;;;1.20;;
42132;SDS011;70517;48.192;16.278;2023-10-08T02:14:50;1.58;;;0.93;;
42132;SDS011;70517;48.192;16.278;2023-10-08T02:17:51;1.63;;;1.13;;
42132;SDS011;70517;48.192;16.278;2023-10-08T02:20:51;1.98;;;1.10;;
42132;SDS011;70517;48.192;16.278;2023-10-08T02:23:52;1.42;;;1.05;;
42132;SDS011;70517;48.192;16.278;2023-10-08T02:26:53;2.40;;;1.20;;
42132;SDS011;70517;48.192;16.278;2023-10-08T02:29:54;1.60;;;1.30;;
42132;SDS011;70517;48.192;16.278;2023-10-08T02:35:55;1.73;;;1.20;;
42132;SDS011;70517;48.192;16.278;2023-10-08T02:38:56;1.97;;;1.00;;
42132;SDS011;70517;48.192;16.278;2023-10-08T02:41:57;1.60;;;1.00;;
42132;SDS011;70517;48.192;16.278;2023-10-08T02:44:59;1.65;;;1.00;;
42132;SDS011;70517;48.192;16.278;2023-10-08T02:48:02;1.70;;;1.20;;
42132;SDS011;70517;48.192;16.278;2023-10-08T02:51:04;2.05;;;1.30;;
42132;SDS011;70517;48.192;16.278;2023-10-08T02:54:13;3.10;;;1.10;;
42132;SDS011;70517;48.192;16.278;2023-10-08T02:57:17;2.13;;;1.17;;
42132;SDS011;70517;48.192;16.278;2023-10-08T03:00:20;2.28;;;1.23;;
42132;SDS011;70517;48.192;16.278;2023-10-08T03:06:22;2.10;;;0.80;;
42132;SDS011;70517;48.192;16.278;2023-10-08T03:12:34;1.52;;;0.95;;
42132;SDS011;70517;48.192;16.278;2023-10-08T03:15:35;1.83;;;1.13;;
42132;SDS011;70517;48.192;16.278;2023-10-08T03:18:46;1.30;;;0.98;;
42132;SDS011;70517;48.192;16.278;2023-10-08T03:21:50;2.13;;;1.10;;
42132;SDS011;70517;48.192;16.278;2023-10-08T03:24:56;1.80;;;1.30;;
42132;SDS011;70517;48.192;16.278;2023-10-08T03:27:57;1.80;;;1.13;;
42132;SDS011;70517;48.192;16.278;2023-10-08T03:30:59;1.83;;;1.08;;
42132;SDS011;70517;48.192;16.278;2023-10-08T03:34:05;2.17;;;1.10;;
42132;SDS011;70517;48.192;16.278;2023-10-08T03:37:07;1.92;;;1.35;;
42132;SDS011;70517;48.192;16.278;2023-10-08T03:40:07;2.00;;;1.20;;
42132;SDS011;70517;48.192;16.278;2023-10-08T03:43:25;1.67;;;1.00;;
42132;SDS011;70517;48.192;16.278;2023-10-08T03:46:34;3.58;;;1.20;;
42132;SDS011;70517;48.192;16.278;2023-10-08T03:49:43;1.73;;;1.20;;
42132;SDS011;70517;48.192;16.278;2023-10-08T03:52:46;1.38;;;1.13;;
42132;SDS011;70517;48.192;16.278;2023-10-08T03:55:47;1.17;;;0.98;;
42132;SDS011;70517;48.192;16.278;2023-10-08T03:58:48;1.58;;;1.00;;
42132;SDS011;70517;48.192;16.278;2023-10-08T04:04:54;1.13;;;0.82;;
42132;SDS011;70517;48.192;16.278;2023-10-08T04:07:57;1.77;;;1.05;;
42132;SDS011;70517;48.192;16.278;2023-10-08T04:11:00;1.40;;;1.00;;
42132;SDS011;70517;48.192;16.278;2023-10-08T04:14:32;2.25;;;1.25;;
42132;SDS011;70517;48.192;16.278;2023-10-08T04:17:38;2.15;;;1.20;;
42132;SDS011;70517;48.192;16.278;2023-10-08T04:20:44;1.65;;;1.23;;
42132;SDS011;70517;48.192;16.278;2023-10-08T04:24:00;1.73;;;1.02;;
42132;SDS011;70517;48.192;16.278;2023-10-08T04:27:08;3.05;;;1.13;;
42132;SDS011;70517;48.192;16.278;2023-10-08T04:30:09;1.95;;;1.45;;
42132;SDS011;70517;48.192;16.278;2023-10-08T04:36:14;1.23;;;0.90;;
42132;SDS011;70517;48.192;16.278;2023-10-08T04:39:18;1.75;;;1.05;;
42132;SDS011;70517;48.192;16.278;2023-10-08T04:42:23;4.60;;;1.10;;
42132;SDS011;70517;48.192;16.278;2023-10-08T04:45:25;2.25;;;1.10;;
42132;SDS011;70517;48.192;16.278;2023-10-08T04:48:26;2.47;;;1.20;;
42132;SDS011;70517;48.192;16.278;2023-10-08T04:51:31;2.10;;;1.00;;
42132;SDS011;70517;48.192;16.278;2023-10-08T04:54:43;1.92;;;1.08;;
42132;SDS011;70517;48.192;16.278;2023-10-08T04:57:51;2.00;;;1.20;;
42132;SDS011;70517;48.192;16.278;2023-10-08T05:00:52;1.48;;;1.13;;
42132;SDS011;70517;48.192;16.278;2023-10-08T05:03:59;2.63;;;1.20;;
42132;SDS011;70517;48.192;16.278;2023-10-08T05:06:59;2.40;;;1.30;;
42132;SDS011;70517;48.192;16.278;2023-10-08T05:10:21;2.75;;;1.20;;
42132;SDS011;70517;48.192;16.278;2023-10-08T05:13:24;1.50;;;1.02;;
42132;SDS011;70517;48.192;16.278;2023-10-08T05:16:30;2.08;;;1.08;;
42132;SDS011;70517;48.192;16.278;2023-10-08T05:19:44;1.90;;;1.25;;
42132;SDS011;70517;48.192;16.278;2023-10-08T05:23:07;1.88;;;1.10;;
42132;SDS011;70517;48.192;16.278;2023-10-08T05:26:27;1.40;;;1.08;;
42132;SDS011;70517;48.192;16.278;2023-10-08T05:29:41;1.63;;;1.13;;
42132;SDS011;70517;48.192;16.278;2023-10-08T05:33:08;1.67;;;1.17;;
42132;SDS011;70517;48.192;16.278;2023-10-08T05:36:24;2.00;;;1.30;;
42132;SDS011;70517;48.192;16.278;2023-10-08T05:39:43;2.42;;;1.17;;
42132;SDS011;70517;48.192;16.278;2023-10-08T05:42:47;1.35;;;1.00;;
42132;SDS011;70517;48.192;16.278;2023-10-08T05:45:49;1.92;;;1.38;;
42132;SDS011;70517;48.192;16.278;2023-10-08T05:49:09;1.90;;;1.37;;
42132;SDS011;70517;48.192;16.278;2023-10-08T05:52:09;1.70;;;1.08;;
42132;SDS011;70517;48.192;16.278;2023-10-08T05:55:25;2.33;;;1.38;;
42132;SDS011;70517;48.192;16.278;2023-10-08T05:58:27;2.83;;;1.20;;
42132;SDS011;70517;48.192;16.278;2023-10-08T06:01:45;2.22;;;1.63;;
42132;SDS011;70517;48.192;16.278;2023-10-08T06:08:05;1.70;;;1.30;;
42132;SDS011;70517;48.192;16.278;2023-10-08T06:11:13;1.30;;;1.00;;
42132;SDS011;70517;48.192;16.278;2023-10-08T06:14:27;1.48;;;0.90;;
42132;SDS011;70517;48.192;16.278;2023-10-08T06:17:52;2.25;;;1.20;;
42132;SDS011;70517;48.192;16.278;2023-10-08T06:20:57;1.48;;;1.23;;
42132;SDS011;70517;48.192;16.278;2023-10-08T06:24:00;2.67;;;1.00;;
42132;SDS011;70517;48.192;16.278;2023-10-08T06:30:04;2.65;;;0.93;;
42132;SDS011;70517;48.192;16.278;2023-10-08T06:36:06;1.17;;;0.95;;
42132;SDS011;70517;48.192;16.278;2023-10-08T06:39:12;1.90;;;1.17;;
42132;SDS011;70517;48.192;16.278;2023-10-08T06:42:18;2.88;;;1.30;;
42132;SDS011;70517;48.192;16.278;2023-10-08T06:45:18;2.50;;;1.20;;
42132;SDS011;70517;48.192;16.278;2023-10-08T06:48:22;2.00;;;1.20;;
42132;SDS011;70517;48.192;16.278;2023-10-08T06:51:23;3.63;;;1.27;;
42132;SDS011;70517;48.192;16.278;2023-10-08T06:54:26;2.03;;;1.20;;
42132;SDS011;70517;48.192;16.278;2023-10-08T06:57:30;2.25;;;1.50;;
42132;SDS011;70517;48.192;16.278;2023-10-08T07:00:33;1.88;;;1.30;;
42132;SDS011;70517;48.192;16.278;2023-10-08T07:03:38;1.50;;;1.15;;
42132;SDS011;70517;48.192;16.278;2023-10-08T07:06:39;3.47;;;1.13;;
42132;SDS011;70517;48.192;16.278;2023-10-08T07:09:39;1.90;;;0.98;;
42132;SDS011;70517;48.192;16.278;2023-10-08T07:12:43;2.40;;;0.93;;
42132;SDS011;70517;48.192;16.278;2023-10-08T07:15:46;2.75;;;1.42;;
42132;SDS011;70517;48.192;16.278;2023-10-08T07:18:46;2.37;;;1.10;;
42132;SDS011;70517;48.192;16.278;2023-10-08T07:22:02;1.88;;;1.30;;
42132;SDS011;70517;48.192;16.278;2023-10-08T07:25:17;2.10;;;1.00;;
42132;SDS011;70517;48.192;16.278;2023-10-08T07:28:20;3.03;;;1.30;;
42132;SDS011;70517;48.192;16.278;2023-10-08T07:31:23;1.90;;;1.27;;
42132;SDS011;70517;48.192;16.278;2023-10-08T07:34:24;1.55;;;1.10;;
42132;SDS011;70517;48.192;16.278;2023-10-08T07:37:24;1.37;;;1.20;;
42132;SDS011;70517;48.192;16.278;2023-10-08T07:40:27;5.22;;;1.50;;
42132;SDS011;70517;48.192;16.278;2023-10-08T07:43:29;2.70;;;1.80;;
42132;SDS011;70517;48.192;16.278;2023-10-08T07:46:32;2.90;;;1.20;;
42132;SDS011;70517;48.192;16.278;2023-10-08T07:49:33;2.17;;;1.27;;
42132;SDS011;70517;48.192;16.278;2023-10-08T07:52:36;2.15;;;1.23;;
42132;SDS011;70517;48.192;16.278;2023-10-08T07:55:36;1.57;;;1.10;;
42132;SDS011;70517;48.192;16.278;2023-10-08T07:58:37;2.17;;;1.13;;
42132;SDS011;70517;48.192;16.278;2023-10-08T08:01:37;1.60;;;1.13;;
42132;SDS011;70517;48.192;16.278;2023-10-08T08:04:41;1.70;;;1.10;;
42132;SDS011;70517;48.192;16.278;2023-10-08T08:07:43;2.40;;;1.10;;
42132;SDS011;70517;48.192;16.278;2023-10-08T08:10:46;3.00;;;1.20;;
42132;SDS011;70517;48.192;16.278;2023-10-08T08:13:47;4.15;;;1.30;;
42132;SDS011;70517;48.192;16.278;2023-10-08T08:16:47;3.03;;;1.00;;
42132;SDS011;70517;48.192;16.278;2023-10-08T08:19:48;1.63;;;1.17;;
42132;SDS011;70517;48.192;16.278;2023-10-08T08:22:49;2.00;;;0.95;;
42132;SDS011;70517;48.192;16.278;2023-10-08T08:25:50;2.40;;;1.35;;
42132;SDS011;70517;48.192;16.278;2023-10-08T08:29:06;1.80;;;1.20;;
42132;SDS011;70517;48.192;16.278;2023-10-08T08:32:09;1.65;;;1.13;;
42132;SDS011;70517;48.192;16.278;2023-10-08T08:35:09;2.45;;;1.98;;
42132;SDS011;70517;48.192;16.278;2023-10-08T08:38:10;11.25;;;8.02;;
42132;SDS011;70517;48.192;16.278;2023-10-08T08:41:12;5.70;;;4.22;;
42132;SDS011;70517;48.192;16.278;2023-10-08T08:44:12;3.37;;;2.00;;
42132;SDS011;70517;48.192;16.278;2023-10-08T08:47:13;3.05;;;1.75;;
42132;SDS011;70517;48.192;16.278;2023-10-08T08:50:20;3.47;;;1.77;;
42132;SDS011;70517;48.192;16.278;2023-10-08T08:53:21;2.55;;;1.52;;
42132;SDS011;70517;48.192;16.278;2023-10-08T08:56:22;1.40;;;1.20;;
42132;SDS011;70517;48.192;16.278;2023-10-08T08:59:25;3.95;;;1.42;;
42132;SDS011;70517;48.192;16.278;2023-10-08T09:02:26;1.92;;;1.35;;
42132;SDS011;70517;48.192;16.278;2023-10-08T09:05:27;2.05;;;1.25;;
42132;SDS011;70517;48.192;16.278;2023-10-08T09:08:40;3.03;;;1.30;;
42132;SDS011;70517;48.192;16.278;2023-10-08T09:11:42;3.05;;;1.38;;
42132;SDS011;70517;48.192;16.278;2023-10-08T09:14:43;3.28;;;1.38;;
42132;SDS011;70517;48.192;16.278;2023-10-08T09:17:44;2.20;;;1.13;;
42132;SDS011;70517;48.192;16.278;2023-10-08T09:20:46;1.30;;;1.00;;
42132;SDS011;70517;48.192;16.278;2023-10-08T09:23:51;1.55;;;0.80;;
42132;SDS011;70517;48.192;16.278;2023-10-08T09:26:51;0.95;;;0.60;;
42132;SDS011;70517;48.192;16.278;2023-10-08T09:29:52;2.85;;;1.50;;
42132;SDS011;70517;48.192;16.278;2023-10-08T09:32:55;1.17;;;0.77;;
42132;SDS011;70517;48.192;16.278;2023-10-08T09:35:55;0.90;;;0.60;;
42132;SDS011;70517;48.192;16.278;2023-10-08T09:39:00;1.38;;;0.55;;
42132;SDS011;70517;48.192;16.278;2023-10-08T09:42:04;0.63;;;0.28;;
42132;SDS011;70517;48.192;16.278;2023-10-08T09:45:07;0.22;;;0.22;;
42132;SDS011;70517;48.192;16.278;2023-10-08T09:48:10;0.40;;;0.35;;
42132;SDS011;70517;48.192;16.278;2023-10-08T09:51:11;0.50;;;0.30;;
42132;SDS011;70517;48.192;16.278;2023-10-08T09:54:17;0.75;;;0.30;;
42132;SDS011;70517;48.192;16.278;2023-10-08T09:57:20;0.60;;;0.30;;
42132;SDS011;70517;48.192;16.278;2023-10-08T10:00:21;0.30;;;0.30;;
42132;SDS011;70517;48.192;16.278;2023-10-08T10:03:30;0.20;;;0.20;;
42132;SDS011;70517;48.192;16.278;2023-10-08T10:09:32;0.20;;;0.20;;
42132;SDS011;70517;48.192;16.278;2023-10-08T10:12:36;0.20;;;0.00;;
42132;SDS011;70517;48.192;16.278;2023-10-08T10:18:37;0.20;;;0.20;;
42132;SDS011;70517;48.192;16.278;2023-10-08T10:21:39;0.17;;;0.17;;
42132;SDS011;70517;48.192;16.278;2023-10-08T10:24:41;0.20;;;0.17;;
42132;SDS011;70517;48.192;16.278;2023-10-08T10:30:42;0.88;;;0.10;;
42132;SDS011;70517;48.192;16.278;2023-10-08T10:39:52;0.55;;;0.10;;
42132;SDS011;70517;48.192;16.278;2023-10-08T10:42:58;0.10;;;0.10;;
42132;SDS011;70517;48.192;16.278;2023-10-08T10:46:01;0.10;;;0.10;;
42132;SDS011;70517;48.192;16.278;2023-10-08T10:49:20;0.17;;;0.17;;
42132;SDS011;70517;48.192;16.278;2023-10-08T10:52:31;0.70;;;0.50;;
42132;SDS011;70517;48.192;16.278;2023-10-08T10:58:32;0.30;;;0.30;;
42132;SDS011;70517;48.192;16.278;2023-10-08T11:01:39;0.28;;;0.28;;
42132;SDS011;70517;48.192;16.278;2023-10-08T11:04:48;0.30;;;0.20;;
42132;SDS011;70517;48.192;16.278;2023-10-08T11:07:48;0.30;;;0.20;;
42132;SDS011;70517;48.192;16.278;2023-10-08T11:13:55;0.10;;;0.10;;
42132;SDS011;70517;48.192;16.278;2023-10-08T11:16:56;0.10;;;0.10;;
42132;SDS011;70517;48.192;16.278;2023-10-08T11:19:56;0.10;;;0.10;;
42132;SDS011;70517;48.192;16.278;2023-10-08T11:26:17;0.10;;;0.10;;
42132;SDS011;70517;48.192;16.278;2023-10-08T11:29:18;1.83;;;1.50;;
42132;SDS011;70517;48.192;16.278;2023-10-08T11:32:25;3.13;;;2.83;;
42132;SDS011;70517;48.192;16.278;2023-10-08T11:35:26;2.17;;;1.25;;
42132;SDS011;70517;48.192;16.278;2023-10-08T11:38:37;1.85;;;0.60;;
42132;SDS011;70517;48.192;16.278;2023-10-08T11:41:38;0.30;;;0.30;;
42132;SDS011;70517;48.192;16.278;2023-10-08T11:44:50;0.32;;;0.20;;
42132;SDS011;70517;48.192;16.278;2023-10-08T11:47:55;0.70;;;0.30;;
42132;SDS011;70517;48.192;16.278;2023-10-08T11:50:55;0.30;;;0.30;;
42132;SDS011;70517;48.192;16.278;2023-10-08T11:54:01;0.17;;;0.17;;
42132;SDS011;70517;48.192;16.278;2023-10-08T11:57:02;0.10;;;0.10;;
42132;SDS011;70517;48.192;16.278;2023-10-08T12:00:03;0.10;;;0.10;;
42132;SDS011;70517;48.192;16.278;2023-10-08T12:03:18;0.40;;;0.28;;
42132;SDS011;70517;48.192;16.278;2023-10-08T12:06:19;0.10;;;0.10;;
42132;SDS011;70517;48.192;16.278;2023-10-08T12:09:19;0.10;;;0.10;;
42132;SDS011;70517;48.192;16.278;2023-10-08T12:12:21;0.10;;;0.10;;
42132;SDS011;70517;48.192;16.278;2023-10-08T12:15:23;0.10;;;0.10;;
42132;SDS011;70517;48.192;16.278;2023-10-08T12:18:34;0.10;;;0.10;;
42132;SDS011;70517;48.192;16.278;2023-10-08T12:21:40;0.30;;;0.10;;
42132;SDS011;70517;48.192;16.278;2023-10-08T12:24:41;0.10;;;0.10;;
42132;SDS011;70517;48.192;16.278;2023-10-08T12:27:42;0.10;;;0.10;;
42132;SDS011;70517;48.192;16.278;2023-10-08T12:30:43;0.30;;;0.20;;
42132;SDS011;70517;48.192;16.278;2023-10-08T12:33:43;0.15;;;0.15;;
42132;SDS011;70517;48.192;16.278;2023-10-08T12:36:44;0.13;;;0.13;;
42132;SDS011;70517;48.192;16.278;2023-10-08T12:39:45;0.40;;;0.30;;
42132;SDS011;70517;48.192;16.278;2023-10-08T12:43:11;0.55;;;0.20;;
42132;SDS011;70517;48.192;16.278;2023-10-08T12:46:12;0.50;;;0.20;;
42132;SDS011;70517;48.192;16.278;2023-10-08T12:49:32;0.20;;;0.20;;
42132;SDS011;70517;48.192;16.278;2023-10-08T12:52:33;3.30;;;1.90;;
42132;SDS011;70517;48.192;16.278;2023-10-08T12:55:37;1.30;;;1.00;;
42132;SDS011;70517;48.192;16.278;2023-10-08T12:58:39;0.50;;;0.50;;
42132;SDS011;70517;48.192;16.278;2023-10-08T13:01:44;0.50;;;0.40;;
42132;SDS011;70517;48.192;16.278;2023-10-08T13:04:44;0.30;;;0.30;;
42132;SDS011;70517;48.192;16.278;2023-10-08T13:07:45;0.80;;;0.45;;
42132;SDS011;70517;48.192;16.278;2023-10-08T13:10:49;2.77;;;1.67;;
42132;SDS011;70517;48.192;16.278;2023-10-08T13:13:53;1.48;;;1.38;;
42132;SDS011;70517;48.192;16.278;2023-10-08T13:16:56;1.13;;;0.65;;
42132;SDS011;70517;48.192;16.278;2023-10-08T13:19:56;1.27;;;0.50;;
42132;SDS011;70517;48.192;16.278;2023-10-08T13:22:56;0.77;;;0.50;;
42132;SDS011;70517;48.192;16.278;2023-10-08T13:25:56;0.60;;;0.40;;
42132;SDS011;70517;48.192;16.278;2023-10-08T13:29:04;0.65;;;0.32;;
42132;SDS011;70517;48.192;16.278;2023-10-08T13:32:05;1.77;;;1.35;;
42132;SDS011;70517;48.192;16.278;2023-10-08T13:35:05;5.03;;;3.93;;
42132;SDS011;70517;48.192;16.278;2023-10-08T13:38:07;3.17;;;2.50;;
42132;SDS011;70517;48.192;16.278;2023-10-08T13:41:09;1.95;;;1.40;;
42132;SDS011;70517;48.192;16.278;2023-10-08T13:44:15;1.17;;;0.80;;
42132;SDS011;70517;48.192;16.278;2023-10-08T13:47:15;0.87;;;0.50;;
42132;SDS011;70517;48.192;16.278;2023-10-08T13:50:16;0.93;;;0.65;;
42132;SDS011;70517;48.192;16.278;2023-10-08T13:53:18;0.77;;;0.40;;
42132;SDS011;70517;48.192;16.278;2023-10-08T13:56:20;0.85;;;0.47;;
42132;SDS011;70517;48.192;16.278;2023-10-08T13:59:24;0.55;;;0.32;;
42132;SDS011;70517;48.192;16.278;2023-10-08T14:02:25;0.40;;;0.30;;
42132;SDS011;70517;48.192;16.278;2023-10-08T14:05:25;0.43;;;0.40;;
42132;SDS011;70517;48.192;16.278;2023-10-08T14:08:25;0.83;;;0.40;;
42132;SDS011;70517;48.192;16.278;2023-10-08T14:11:28;0.35;;;0.35;;
42132;SDS011;70517;48.192;16.278;2023-10-08T14:14:33;0.50;;;0.40;;
42132;SDS011;70517;48.192;16.278;2023-10-08T14:17:34;0.38;;;0.38;;
42132;SDS011;70517;48.192;16.278;2023-10-08T14:20:43;0.30;;;0.30;;
42132;SDS011;70517;48.192;16.278;2023-10-08T14:23:46;0.60;;;0.60;;
42132;SDS011;70517;48.192;16.278;2023-10-08T14:26:50;0.90;;;0.52;;
42132;SDS011;70517;48.192;16.278;2023-10-08T14:30:00;0.40;;;0.40;;
42132;SDS011;70517;48.192;16.278;2023-10-08T14:33:04;0.50;;;0.40;;
42132;SDS011;70517;48.192;16.278;2023-10-08T14:36:09;1.58;;;1.08;;
42132;SDS011;70517;48.192;16.278;2023-10-08T14:39:28;2.03;;;1.00;;
42132;SDS011;70517;48.192;16.278;2023-10-08T14:42:47;1.20;;;0.60;;
42132;SDS011;70517;48.192;16.278;2023-10-08T14:45:56;0.60;;;0.45;;
42132;SDS011;70517;48.192;16.278;2023-10-08T14:48:59;7.38;;;4.85;;
42132;SDS011;70517;48.192;16.278;2023-10-08T14:51:59;5.90;;;4.30;;
42132;SDS011;70517;48.192;16.278;2023-10-08T14:54:59;2.50;;;2.17;;
42132;SDS011;70517;48.192;16.278;2023-10-08T14:57:59;1.93;;;1.37;;
42132;SDS011;70517;48.192;16.278;2023-10-08T15:01:06;1.48;;;0.95;;
42132;SDS011;70517;48.192;16.278;2023-10-08T15:04:07;1.38;;;0.93;;
42132;SDS011;70517;48.192;16.278;2023-10-08T15:07:11;0.82;;;0.60;;
42132;SDS011;70517;48.192;16.278;2023-10-08T15:10:11;0.90;;;0.60;;
42132;SDS011;70517;48.192;16.278;2023-10-08T15:13:13;1.65;;;0.60;;
42132;SDS011;70517;48.192;16.278;2023-10-08T15:16:13;0.80;;;0.60;;
42132;SDS011;70517;48.192;16.278;2023-10-08T15:19:13;0.63;;;0.50;;
42132;SDS011;70517;48.192;16.278;2023-10-08T15:22:15;1.10;;;0.50;;
42132;SDS011;70517;48.192;16.278;2023-10-08T15:25:16;0.77;;;0.50;;
42132;SDS011;70517;48.192;16.278;2023-10-08T15:28:17;0.70;;;0.50;;
42132;SDS011;70517;48.192;16.278;2023-10-08T15:31:18;0.45;;;0.40;;
42132;SDS011;70517;48.192;16.278;2023-10-08T15:37:19;0.40;;;0.40;;
42132;SDS011;70517;48.192;16.278;2023-10-08T15:40:19;1.17;;;0.40;;
42132;SDS011;70517;48.192;16.278;2023-10-08T15:43:20;0.40;;;0.40;;
42132;SDS011;70517;48.192;16.278;2023-10-08T15:46:20;0.50;;;0.50;;
42132;SDS011;70517;48.192;16.278;2023-10-08T15:49:20;0.40;;;0.40;;
42132;SDS011;70517;48.192;16.278;2023-10-08T15:52:21;0.53;;;0.50;;
42132;SDS011;70517;48.192;16.278;2023-10-08T15:55:22;0.47;;;0.43;;
42132;SDS011;70517;48.192;16.278;2023-10-08T15:58:23;0.35;;;0.30;;
42132;SDS011;70517;48.192;16.278;2023-10-08T16:01:23;0.50;;;0.50;;
42132;SDS011;70517;48.192;16.278;2023-10-08T16:04:26;0.70;;;0.57;;
42132;SDS011;70517;48.192;16.278;2023-10-08T16:07:28;0.47;;;0.40;;
42132;SDS011;70517;48.192;16.278;2023-10-08T16:10:30;0.50;;;0.50;;
42132;SDS011;70517;48.192;16.278;2023-10-08T16:13:30;0.60;;;0.43;;
42132;SDS011;70517;48.192;16.278;2023-10-08T16:16:30;1.67;;;0.50;;
42132;SDS011;70517;48.192;16.278;2023-10-08T16:19:30;1.00;;;0.50;;
42132;SDS011;70517;48.192;16.278;2023-10-08T16:22:32;1.98;;;1.25;;
42132;SDS011;70517;48.192;16.278;2023-10-08T16:25:33;0.80;;;0.80;;
42132;SDS011;70517;48.192;16.278;2023-10-08T16:28:33;1.70;;;0.53;;
42132;SDS011;70517;48.192;16.278;2023-10-08T16:31:34;2.00;;;0.90;;
42132;SDS011;70517;48.192;16.278;2023-10-08T16:34:41;0.65;;;0.60;;
42132;SDS011;70517;48.192;16.278;2023-10-08T16:37:45;0.73;;;0.40;;
42132;SDS011;70517;48.192;16.278;2023-10-08T16:40:45;1.00;;;0.60;;
42132;SDS011;70517;48.192;16.278;2023-10-08T16:43:45;0.80;;;0.50;;
42132;SDS011;70517;48.192;16.278;2023-10-08T16:46:45;0.43;;;0.40;;
42132;SDS011;70517;48.192;16.278;2023-10-08T16:49:46;0.40;;;0.40;;
42132;SDS011;70517;48.192;16.278;2023-10-08T16:52:46;0.90;;;0.60;;
42132;SDS011;70517;48.192;16.278;2023-10-08T16:55:48;1.10;;;0.50;;
42132;SDS011;70517;48.192;16.278;2023-10-08T16:58:50;0.55;;;0.50;;
42132;SDS011;70517;48.192;16.278;2023-10-08T17:01:50;0.60;;;0.50;;
42132;SDS011;70517;48.192;16.278;2023-10-08T17:04:50;0.50;;;0.40;;
42132;SDS011;70517;48.192;16.278;2023-10-08T17:07:50;0.47;;;0.43;;
42132;SDS011;70517;48.192;16.278;2023-10-08T17:10:52;0.47;;;0.45;;
42132;SDS011;70517;48.192;16.278;2023-10-08T17:13:52;0.73;;;0.40;;
42132;SDS011;70517;48.192;16.278;2023-10-08T17:16:53;0.40;;;0.40;;
42132;SDS011;70517;48.192;16.278;2023-10-08T17:19:53;0.40;;;0.40;;
42132;SDS011;70517;48.192;16.278;2023-10-08T17:22:53;0.30;;;0.30;;
42132;SDS011;70517;48.192;16.278;2023-10-08T17:25:53;0.77;;;0.50;;
42132;SDS011;70517;48.192;16.278;2023-10-08T17:28:54;0.70;;;0.50;;
42132;SDS011;70517;48.192;16.278;2023-10-08T17:31:54;0.90;;;0.60;;
42132;SDS011;70517;48.192;16.278;2023-10-08T17:34:56;0.52;;;0.40;;
42132;SDS011;70517;48.192;16.278;2023-10-08T17:37:56;0.80;;;0.50;;
42132;SDS011;70517;48.192;16.278;2023-10-08T17:40:56;1.40;;;1.10;;
42132;SDS011;70517;48.192;16.278;2023-10-08T17:43:57;2.53;;;1.80;;
42132;SDS011;70517;48.192;16.278;2023-10-08T17:46:57;1.85;;;1.10;;
42132;SDS011;70517;48.192;16.278;2023-10-08T17:49:57;1.37;;;0.60;;
42132;SDS011;70517;48.192;16.278;2023-10-08T17:52:58;0.73;;;0.63;;
42132;SDS011;70517;48.192;16.278;2023-10-08T17:56:01;0.70;;;0.55;;
42132;SDS011;70517;48.192;16.278;2023-10-08T17:59:01;0.67;;;0.50;;
42132;SDS011;70517;48.192;16.278;2023-10-08T18:02:01;1.30;;;0.57;;
42132;SDS011;70517;48.192;16.278;2023-10-08T18:05:01;0.47;;;0.37;;
42132;SDS011;70517;48.192;16.278;2023-10-08T18:08:04;0.32;;;0.30;;
42132;SDS011;70517;48.192;16.278;2023-10-08T18:11:06;0.60;;;0.40;;
42132;SDS011;70517;48.192;16.278;2023-10-08T18:14:10;0.63;;;0.43;;
42132;SDS011;70517;48.192;16.278;2023-10-08T18:17:14;0.50;;;0.40;;
42132;SDS011;70517;48.192;16.278;2023-10-08T18:20:15;0.50;;;0.43;;
42132;SDS011;70517;48.192;16.278;2023-10-08T18:23:35;0.50;;;0.40;;
42132;SDS011;70517;48.192;16.278;2023-10-08T18:26:36;1.63;;;0.70;;
42132;SDS011;70517;48.192;16.278;2023-10-08T18:29:41;1.48;;;0.60;;
42132;SDS011;70517;48.192;16.278;2023-10-08T18:32:42;1.10;;;0.40;;
42132;SDS011;70517;48.192;16.278;2023-10-08T18:35:43;0.40;;;0.40;;
42132;SDS011;70517;48.192;16.278;2023-10-08T18:38:43;0.70;;;0.50;;
42132;SDS011;70517;48.192;16.278;2023-10-08T18:41:43;0.70;;;0.40;;
42132;SDS011;70517;48.192;16.278;2023-10-08T18:44:44;4.32;;;1.38;;
42132;SDS011;70517;48.192;16.278;2023-10-08T18:47:44;1.30;;;0.90;;
42132;SDS011;70517;48.192;16.278;2023-10-08T18:50:44;0.87;;;0.60;;
42132;SDS011;70517;48.192;16.278;2023-10-08T18:53:45;0.70;;;0.60;;
42132;SDS011;70517;48.192;16.278;2023-10-08T18:56:46;0.73;;;0.52;;
42132;SDS011;70517;48.192;16.278;2023-10-08T18:59:46;0.80;;;0.40;;
42132;SDS011;70517;48.192;16.278;2023-10-08T19:02:46;1.43;;;0.47;;
42132;SDS011;70517;48.192;16.278;2023-10-08T19:05:49;0.50;;;0.30;;